sensor_id;sensor_type;location;lat;lon;timestamp;P1;durP1;ratioP1;P2;durP2;ratioP2
36501;SDS011;25393;46.108;3.390;2023-05-23T00:02:12;30.67;;;16.90;;
36501;SDS011;25393;46.108;3.390;2023-05-23T00:04:43;20.35;;;15.43;;
36501;SDS011;25393;46.108;3.390;2023-05-23T00:07:12;21.40;;;14.95;;
36501;SDS011;25393;46.108;3.390;2023-05-23T00:09:38;21.45;;;14.68;;
36501;SDS011;25393;46.108;3.390;2023-05-23T00:12:05;18.27;;;14.52;;
36501;SDS011;25393;46.108;3.390;2023-05-23T00:14:32;17.80;;;14.30;;
36501;SDS011;25393;46.108;3.390;2023-05-23T00:17:00;18.60;;;14.95;;
36501;SDS011;25393;46.108;3.390;2023-05-23T00:19:27;18.63;;;14.77;;
36501;SDS011;25393;46.108;3.390;2023-05-23T00:21:53;20.00;;;13.75;;
36501;SDS011;25393;46.108;3.390;2023-05-23T00:24:24;20.33;;;15.70;;
36501;SDS011;25393;46.108;3.390;2023-05-23T00:26:51;15.98;;;13.43;;
36501;SDS011;25393;46.108;3.390;2023-05-23T00:29:17;18.30;;;14.20;;
36501;SDS011;25393;46.108;3.390;2023-05-23T00:31:45;16.73;;;13.35;;
36501;SDS011;25393;46.108;3.390;2023-05-23T00:34:14;20.80;;;13.65;;
36501;SDS011;25393;46.108;3.390;2023-05-23T00:36:44;16.85;;;12.93;;
36501;SDS011;25393;46.108;3.390;2023-05-23T00:39:13;20.30;;;14.93;;
36501;SDS011;25393;46.108;3.390;2023-05-23T00:41:47;19.02;;;12.95;;
36501;SDS011;25393;46.108;3.390;2023-05-23T00:44:18;23.70;;;14.63;;
36501;SDS011;25393;46.108;3.390;2023-05-23T00:46:51;18.98;;;14.00;;
36501;SDS011;25393;46.108;3.390;2023-05-23T00:49:21;21.65;;;14.45;;
36501;SDS011;25393;46.108;3.390;2023-05-23T00:51:49;20.13;;;14.63;;
36501;SDS011;25393;46.108;3.390;2023-05-23T00:54:24;17.13;;;13.18;;
36501;SDS011;25393;46.108;3.390;2023-05-23T00:56:54;16.48;;;12.70;;
36501;SDS011;25393;46.108;3.390;2023-05-23T00:59:24;17.58;;;14.02;;
36501;SDS011;25393;46.108;3.390;2023-05-23T01:01:51;18.88;;;14.35;;
36501;SDS011;25393;46.108;3.390;2023-05-23T01:04:21;23.80;;;16.02;;
36501;SDS011;25393;46.108;3.390;2023-05-23T01:06:53;22.75;;;15.63;;
36501;SDS011;25393;46.108;3.390;2023-05-23T01:09:20;21.92;;;15.18;;
36501;SDS011;25393;46.108;3.390;2023-05-23T01:14:23;20.70;;;15.52;;
36501;SDS011;25393;46.108;3.390;2023-05-23T01:17:12;20.42;;;15.20;;
36501;SDS011;25393;46.108;3.390;2023-05-23T01:19:59;28.50;;;16.75;;
36501;SDS011;25393;46.108;3.390;2023-05-23T01:25:10;19.15;;;14.85;;
36501;SDS011;25393;46.108;3.390;2023-05-23T01:27:56;24.23;;;14.80;;
36501;SDS011;25393;46.108;3.390;2023-05-23T01:30:26;21.73;;;14.73;;
36501;SDS011;25393;46.108;3.390;2023-05-23T01:32:57;20.02;;;15.48;;
36501;SDS011;25393;46.108;3.390;2023-05-23T01:35:25;22.67;;;15.55;;
36501;SDS011;25393;46.108;3.390;2023-05-23T01:37:53;20.20;;;15.95;;
36501;SDS011;25393;46.108;3.390;2023-05-23T01:40:23;20.15;;;13.70;;
36501;SDS011;25393;46.108;3.390;2023-05-23T01:42:54;22.02;;;16.08;;
36501;SDS011;25393;46.108;3.390;2023-05-23T01:45:25;19.77;;;14.93;;
36501;SDS011;25393;46.108;3.390;2023-05-23T01:47:53;21.30;;;14.98;;
36501;SDS011;25393;46.108;3.390;2023-05-23T01:50:22;18.80;;;14.00;;
36501;SDS011;25393;46.108;3.390;2023-05-23T01:52:49;19.27;;;15.00;;
36501;SDS011;25393;46.108;3.390;2023-05-23T01:55:20;21.88;;;14.75;;
36501;SDS011;25393;46.108;3.390;2023-05-23T01:57:54;22.50;;;14.55;;
36501;SDS011;25393;46.108;3.390;2023-05-23T02:00:23;18.58;;;14.02;;
36501;SDS011;25393;46.108;3.390;2023-05-23T02:02:50;23.67;;;15.18;;
36501;SDS011;25393;46.108;3.390;2023-05-23T02:05:19;23.73;;;15.82;;
36501;SDS011;25393;46.108;3.390;2023-05-23T02:07:48;24.27;;;16.48;;
36501;SDS011;25393;46.108;3.390;2023-05-23T02:10:15;23.50;;;17.15;;
36501;SDS011;25393;46.108;3.390;2023-05-23T02:12:42;23.75;;;16.35;;
36501;SDS011;25393;46.108;3.390;2023-05-23T02:15:08;20.92;;;17.25;;
36501;SDS011;25393;46.108;3.390;2023-05-23T02:17:35;22.90;;;16.17;;
36501;SDS011;25393;46.108;3.390;2023-05-23T02:20:04;24.75;;;17.00;;
36501;SDS011;25393;46.108;3.390;2023-05-23T02:22:32;24.88;;;16.73;;
36501;SDS011;25393;46.108;3.390;2023-05-23T02:24:58;23.70;;;16.65;;
36501;SDS011;25393;46.108;3.390;2023-05-23T02:27:25;26.45;;;16.92;;
36501;SDS011;25393;46.108;3.390;2023-05-23T02:29:51;22.17;;;16.00;;
36501;SDS011;25393;46.108;3.390;2023-05-23T02:32:20;23.00;;;16.58;;
36501;SDS011;25393;46.108;3.390;2023-05-23T02:34:46;22.02;;;16.25;;
36501;SDS011;25393;46.108;3.390;2023-05-23T02:37:15;28.00;;;18.33;;
36501;SDS011;25393;46.108;3.390;2023-05-23T02:39:42;20.17;;;15.93;;
36501;SDS011;25393;46.108;3.390;2023-05-23T02:42:09;23.92;;;17.83;;
36501;SDS011;25393;46.108;3.390;2023-05-23T02:44:35;21.67;;;16.75;;
36501;SDS011;25393;46.108;3.390;2023-05-23T02:47:02;23.45;;;16.08;;
36501;SDS011;25393;46.108;3.390;2023-05-23T02:49:28;23.10;;;17.35;;
36501;SDS011;25393;46.108;3.390;2023-05-23T02:51:55;23.27;;;17.20;;
36501;SDS011;25393;46.108;3.390;2023-05-23T02:54:22;21.95;;;16.38;;
36501;SDS011;25393;46.108;3.390;2023-05-23T02:56:49;23.52;;;16.95;;
36501;SDS011;25393;46.108;3.390;2023-05-23T02:59:17;24.27;;;16.88;;
36501;SDS011;25393;46.108;3.390;2023-05-23T03:01:44;23.95;;;17.42;;
36501;SDS011;25393;46.108;3.390;2023-05-23T03:04:10;26.02;;;18.00;;
36501;SDS011;25393;46.108;3.390;2023-05-23T03:06:38;24.35;;;17.65;;
36501;SDS011;25393;46.108;3.390;2023-05-23T03:09:07;23.02;;;16.58;;
36501;SDS011;25393;46.108;3.390;2023-05-23T03:11:35;21.63;;;17.20;;
36501;SDS011;25393;46.108;3.390;2023-05-23T03:14:02;28.50;;;17.88;;
36501;SDS011;25393;46.108;3.390;2023-05-23T03:16:28;24.98;;;17.90;;
36501;SDS011;25393;46.108;3.390;2023-05-23T03:18:58;25.33;;;17.70;;
36501;SDS011;25393;46.108;3.390;2023-05-23T03:21:30;28.08;;;17.77;;
36501;SDS011;25393;46.108;3.390;2023-05-23T03:23:58;26.98;;;17.88;;
36501;SDS011;25393;46.108;3.390;2023-05-23T03:26:24;23.27;;;18.17;;
36501;SDS011;25393;46.108;3.390;2023-05-23T03:28:53;23.35;;;17.67;;
36501;SDS011;25393;46.108;3.390;2023-05-23T03:31:20;25.63;;;17.98;;
36501;SDS011;25393;46.108;3.390;2023-05-23T03:33:46;23.70;;;17.70;;
36501;SDS011;25393;46.108;3.390;2023-05-23T03:36:13;24.00;;;17.17;;
36501;SDS011;25393;46.108;3.390;2023-05-23T03:38:39;28.52;;;18.67;;
36501;SDS011;25393;46.108;3.390;2023-05-23T03:41:06;23.50;;;18.08;;
36501;SDS011;25393;46.108;3.390;2023-05-23T03:43:33;26.80;;;18.75;;
36501;SDS011;25393;46.108;3.390;2023-05-23T03:46:00;27.58;;;18.65;;
36501;SDS011;25393;46.108;3.390;2023-05-23T03:48:29;22.63;;;16.85;;
36501;SDS011;25393;46.108;3.390;2023-05-23T03:50:57;24.98;;;18.63;;
36501;SDS011;25393;46.108;3.390;2023-05-23T03:53:26;29.40;;;19.42;;
36501;SDS011;25393;46.108;3.390;2023-05-23T03:55:55;30.50;;;19.52;;
36501;SDS011;25393;46.108;3.390;2023-05-23T03:58:21;31.42;;;19.30;;
36501;SDS011;25393;46.108;3.390;2023-05-23T04:00:48;24.00;;;17.63;;
36501;SDS011;25393;46.108;3.390;2023-05-23T04:03:14;27.70;;;18.40;;
36501;SDS011;25393;46.108;3.390;2023-05-23T04:05:42;28.08;;;19.42;;
36501;SDS011;25393;46.108;3.390;2023-05-23T04:08:09;31.17;;;19.77;;
36501;SDS011;25393;46.108;3.390;2023-05-23T04:10:36;25.52;;;17.80;;
36501;SDS011;25393;46.108;3.390;2023-05-23T04:13:02;30.63;;;20.63;;
36501;SDS011;25393;46.108;3.390;2023-05-23T04:15:32;29.05;;;20.85;;
36501;SDS011;25393;46.108;3.390;2023-05-23T04:18:02;29.17;;;19.35;;
36501;SDS011;25393;46.108;3.390;2023-05-23T04:20:32;31.45;;;20.17;;
36501;SDS011;25393;46.108;3.390;2023-05-23T04:23:01;31.58;;;19.98;;
36501;SDS011;25393;46.108;3.390;2023-05-23T04:25:28;28.98;;;19.38;;
36501;SDS011;25393;46.108;3.390;2023-05-23T04:27:56;31.40;;;19.92;;
36501;SDS011;25393;46.108;3.390;2023-05-23T04:30:23;29.80;;;20.42;;
36501;SDS011;25393;46.108;3.390;2023-05-23T04:32:49;31.55;;;19.48;;
36501;SDS011;25393;46.108;3.390;2023-05-23T04:35:16;33.22;;;20.00;;
36501;SDS011;25393;46.108;3.390;2023-05-23T04:37:42;32.33;;;19.67;;
36501;SDS011;25393;46.108;3.390;2023-05-23T04:40:10;26.58;;;20.35;;
36501;SDS011;25393;46.108;3.390;2023-05-23T04:42:38;34.17;;;20.15;;
36501;SDS011;25393;46.108;3.390;2023-05-23T04:45:07;36.08;;;21.38;;
36501;SDS011;25393;46.108;3.390;2023-05-23T04:47:35;31.85;;;21.25;;
36501;SDS011;25393;46.108;3.390;2023-05-23T04:50:02;28.52;;;20.02;;
36501;SDS011;25393;46.108;3.390;2023-05-23T04:52:30;31.55;;;18.98;;
36501;SDS011;25393;46.108;3.390;2023-05-23T04:54:59;33.92;;;20.55;;
36501;SDS011;25393;46.108;3.390;2023-05-23T04:57:32;29.35;;;20.25;;
36501;SDS011;25393;46.108;3.390;2023-05-23T04:59:59;34.00;;;21.60;;
36501;SDS011;25393;46.108;3.390;2023-05-23T05:02:26;32.10;;;21.88;;
36501;SDS011;25393;46.108;3.390;2023-05-23T05:04:53;28.13;;;20.30;;
36501;SDS011;25393;46.108;3.390;2023-05-23T05:07:20;30.98;;;20.40;;
36501;SDS011;25393;46.108;3.390;2023-05-23T05:09:46;31.23;;;20.42;;
36501;SDS011;25393;46.108;3.390;2023-05-23T05:12:13;31.88;;;21.80;;
36501;SDS011;25393;46.108;3.390;2023-05-23T05:14:39;35.80;;;20.48;;
36501;SDS011;25393;46.108;3.390;2023-05-23T05:17:06;43.00;;;21.38;;
36501;SDS011;25393;46.108;3.390;2023-05-23T05:19:33;29.00;;;20.33;;
36501;SDS011;25393;46.108;3.390;2023-05-23T05:22:02;32.47;;;22.17;;
36501;SDS011;25393;46.108;3.390;2023-05-23T05:24:32;32.20;;;21.27;;
36501;SDS011;25393;46.108;3.390;2023-05-23T05:26:59;31.70;;;20.85;;
36501;SDS011;25393;46.108;3.390;2023-05-23T05:29:32;36.80;;;22.08;;
36501;SDS011;25393;46.108;3.390;2023-05-23T05:32:01;34.17;;;21.38;;
36501;SDS011;25393;46.108;3.390;2023-05-23T05:34:31;30.40;;;20.15;;
36501;SDS011;25393;46.108;3.390;2023-05-23T05:36:58;32.15;;;21.58;;
36501;SDS011;25393;46.108;3.390;2023-05-23T05:39:31;36.25;;;22.65;;
36501;SDS011;25393;46.108;3.390;2023-05-23T05:41:57;38.60;;;22.48;;
36501;SDS011;25393;46.108;3.390;2023-05-23T05:44:26;30.85;;;21.45;;
36501;SDS011;25393;46.108;3.390;2023-05-23T05:46:53;37.60;;;21.55;;
36501;SDS011;25393;46.108;3.390;2023-05-23T05:49:20;35.25;;;21.45;;
36501;SDS011;25393;46.108;3.390;2023-05-23T05:51:47;38.97;;;21.92;;
36501;SDS011;25393;46.108;3.390;2023-05-23T05:54:14;36.70;;;22.10;;
36501;SDS011;25393;46.108;3.390;2023-05-23T05:56:45;32.50;;;21.38;;
36501;SDS011;25393;46.108;3.390;2023-05-23T05:59:12;36.05;;;22.00;;
36501;SDS011;25393;46.108;3.390;2023-05-23T06:01:38;38.72;;;22.10;;
36501;SDS011;25393;46.108;3.390;2023-05-23T06:04:06;38.55;;;21.63;;
36501;SDS011;25393;46.108;3.390;2023-05-23T06:06:33;36.13;;;20.95;;
36501;SDS011;25393;46.108;3.390;2023-05-23T06:09:00;34.75;;;21.60;;
36501;SDS011;25393;46.108;3.390;2023-05-23T06:11:26;29.63;;;20.88;;
36501;SDS011;25393;46.108;3.390;2023-05-23T06:13:53;39.38;;;20.80;;
36501;SDS011;25393;46.108;3.390;2023-05-23T06:16:20;36.47;;;21.05;;
36501;SDS011;25393;46.108;3.390;2023-05-23T06:18:46;35.08;;;21.65;;
36501;SDS011;25393;46.108;3.390;2023-05-23T06:21:13;34.30;;;22.05;;
36501;SDS011;25393;46.108;3.390;2023-05-23T06:23:39;38.05;;;23.20;;
36501;SDS011;25393;46.108;3.390;2023-05-23T06:26:06;35.05;;;21.88;;
36501;SDS011;25393;46.108;3.390;2023-05-23T06:28:38;48.00;;;22.08;;
36501;SDS011;25393;46.108;3.390;2023-05-23T06:31:05;40.42;;;23.70;;
36501;SDS011;25393;46.108;3.390;2023-05-23T06:33:32;43.33;;;22.92;;
36501;SDS011;25393;46.108;3.390;2023-05-23T06:36:01;39.20;;;24.38;;
36501;SDS011;25393;46.108;3.390;2023-05-23T06:38:28;40.60;;;22.25;;
36501;SDS011;25393;46.108;3.390;2023-05-23T06:40:59;39.53;;;23.83;;
36501;SDS011;25393;46.108;3.390;2023-05-23T06:43:29;39.22;;;24.08;;
36501;SDS011;25393;46.108;3.390;2023-05-23T06:45:56;35.50;;;22.63;;
36501;SDS011;25393;46.108;3.390;2023-05-23T06:48:32;39.72;;;22.17;;
36501;SDS011;25393;46.108;3.390;2023-05-23T06:50:59;42.75;;;22.98;;
36501;SDS011;25393;46.108;3.390;2023-05-23T06:53:31;39.22;;;21.77;;
36501;SDS011;25393;46.108;3.390;2023-05-23T06:56:00;35.28;;;22.08;;
36501;SDS011;25393;46.108;3.390;2023-05-23T06:58:27;38.42;;;23.15;;
36501;SDS011;25393;46.108;3.390;2023-05-23T07:00:56;35.83;;;21.88;;
36501;SDS011;25393;46.108;3.390;2023-05-23T07:03:28;38.40;;;21.88;;
36501;SDS011;25393;46.108;3.390;2023-05-23T07:05:56;36.75;;;22.88;;
36501;SDS011;25393;46.108;3.390;2023-05-23T07:08:24;39.03;;;22.25;;
36501;SDS011;25393;46.108;3.390;2023-05-23T07:10:51;42.10;;;23.30;;
36501;SDS011;25393;46.108;3.390;2023-05-23T07:13:18;41.97;;;24.60;;
36501;SDS011;25393;46.108;3.390;2023-05-23T07:15:44;39.88;;;23.23;;
36501;SDS011;25393;46.108;3.390;2023-05-23T07:18:11;46.40;;;23.88;;
36501;SDS011;25393;46.108;3.390;2023-05-23T07:20:38;49.20;;;26.50;;
36501;SDS011;25393;46.108;3.390;2023-05-23T07:23:06;40.25;;;24.70;;
36501;SDS011;25393;46.108;3.390;2023-05-23T07:25:33;41.00;;;25.55;;
36501;SDS011;25393;46.108;3.390;2023-05-23T07:28:03;53.58;;;25.88;;
36501;SDS011;25393;46.108;3.390;2023-05-23T07:30:30;38.85;;;24.25;;
36501;SDS011;25393;46.108;3.390;2023-05-23T07:33:01;37.65;;;24.27;;
36501;SDS011;25393;46.108;3.390;2023-05-23T07:35:32;42.75;;;23.92;;
36501;SDS011;25393;46.108;3.390;2023-05-23T07:37:59;39.15;;;22.98;;
36501;SDS011;25393;46.108;3.390;2023-05-23T07:40:30;40.15;;;22.60;;
36501;SDS011;25393;46.108;3.390;2023-05-23T07:42:57;45.58;;;25.35;;
36501;SDS011;25393;46.108;3.390;2023-05-23T07:45:25;36.03;;;22.98;;
36501;SDS011;25393;46.108;3.390;2023-05-23T07:47:52;40.72;;;25.13;;
36501;SDS011;25393;46.108;3.390;2023-05-23T07:50:19;43.60;;;25.38;;
36501;SDS011;25393;46.108;3.390;2023-05-23T07:52:45;43.88;;;24.67;;
36501;SDS011;25393;46.108;3.390;2023-05-23T07:55:12;35.28;;;22.98;;
36501;SDS011;25393;46.108;3.390;2023-05-23T07:57:38;44.97;;;23.90;;
36501;SDS011;25393;46.108;3.390;2023-05-23T08:00:05;43.20;;;24.45;;
36501;SDS011;25393;46.108;3.390;2023-05-23T08:02:35;52.30;;;25.70;;
36501;SDS011;25393;46.108;3.390;2023-05-23T08:05:01;41.58;;;24.40;;
36501;SDS011;25393;46.108;3.390;2023-05-23T08:07:28;45.88;;;25.02;;
36501;SDS011;25393;46.108;3.390;2023-05-23T08:09:58;41.05;;;24.67;;
36501;SDS011;25393;46.108;3.390;2023-05-23T08:12:25;39.22;;;23.95;;
36501;SDS011;25393;46.108;3.390;2023-05-23T08:14:52;44.80;;;24.45;;
36501;SDS011;25393;46.108;3.390;2023-05-23T08:17:18;45.22;;;26.42;;
36501;SDS011;25393;46.108;3.390;2023-05-23T08:19:45;39.97;;;23.77;;
36501;SDS011;25393;46.108;3.390;2023-05-23T08:22:14;42.85;;;23.65;;
36501;SDS011;25393;46.108;3.390;2023-05-23T08:24:40;45.92;;;25.92;;
36501;SDS011;25393;46.108;3.390;2023-05-23T08:27:07;44.70;;;25.35;;
36501;SDS011;25393;46.108;3.390;2023-05-23T08:29:34;48.08;;;23.98;;
36501;SDS011;25393;46.108;3.390;2023-05-23T08:32:02;42.72;;;24.65;;
36501;SDS011;25393;46.108;3.390;2023-05-23T08:34:32;41.50;;;23.55;;
36501;SDS011;25393;46.108;3.390;2023-05-23T08:37:02;48.50;;;25.48;;
36501;SDS011;25393;46.108;3.390;2023-05-23T08:39:31;41.35;;;23.33;;
36501;SDS011;25393;46.108;3.390;2023-05-23T08:41:58;41.00;;;23.50;;
36501;SDS011;25393;46.108;3.390;2023-05-23T08:44:29;39.70;;;24.73;;
36501;SDS011;25393;46.108;3.390;2023-05-23T08:47:02;39.40;;;24.23;;
36501;SDS011;25393;46.108;3.390;2023-05-23T08:49:33;41.72;;;23.90;;
36501;SDS011;25393;46.108;3.390;2023-05-23T08:52:02;45.30;;;24.55;;
36501;SDS011;25393;46.108;3.390;2023-05-23T08:54:30;42.25;;;25.88;;
36501;SDS011;25393;46.108;3.390;2023-05-23T08:56:57;39.00;;;23.13;;
36501;SDS011;25393;46.108;3.390;2023-05-23T08:59:27;43.80;;;24.10;;
36501;SDS011;25393;46.108;3.390;2023-05-23T09:01:57;37.50;;;22.80;;
36501;SDS011;25393;46.108;3.390;2023-05-23T09:04:32;40.60;;;23.25;;
36501;SDS011;25393;46.108;3.390;2023-05-23T09:07:02;37.20;;;21.73;;
36501;SDS011;25393;46.108;3.390;2023-05-23T09:09:32;36.28;;;22.88;;
36501;SDS011;25393;46.108;3.390;2023-05-23T09:12:02;46.13;;;24.60;;
36501;SDS011;25393;46.108;3.390;2023-05-23T09:14:32;40.75;;;23.27;;
36501;SDS011;25393;46.108;3.390;2023-05-23T09:17:01;38.30;;;23.10;;
36501;SDS011;25393;46.108;3.390;2023-05-23T09:19:30;39.35;;;22.17;;
36501;SDS011;25393;46.108;3.390;2023-05-23T09:21:57;47.22;;;23.65;;
36501;SDS011;25393;46.108;3.390;2023-05-23T09:24:32;40.58;;;22.98;;
36501;SDS011;25393;46.108;3.390;2023-05-23T09:27:03;34.67;;;22.27;;
36501;SDS011;25393;46.108;3.390;2023-05-23T09:29:31;50.08;;;24.38;;
36501;SDS011;25393;46.108;3.390;2023-05-23T09:32:13;40.80;;;23.58;;
36501;SDS011;25393;46.108;3.390;2023-05-23T09:35:03;42.03;;;23.38;;
36501;SDS011;25393;46.108;3.390;2023-05-23T09:37:40;44.53;;;24.05;;
36501;SDS011;25393;46.108;3.390;2023-05-23T09:40:11;49.97;;;24.50;;
36501;SDS011;25393;46.108;3.390;2023-05-23T09:42:43;44.08;;;24.02;;
36501;SDS011;25393;46.108;3.390;2023-05-23T09:45:14;42.42;;;24.85;;
36501;SDS011;25393;46.108;3.390;2023-05-23T09:47:49;42.20;;;26.05;;
36501;SDS011;25393;46.108;3.390;2023-05-23T09:50:18;60.58;;;26.33;;
36501;SDS011;25393;46.108;3.390;2023-05-23T09:52:46;51.47;;;25.17;;
36501;SDS011;25393;46.108;3.390;2023-05-23T09:55:13;46.03;;;24.38;;
36501;SDS011;25393;46.108;3.390;2023-05-23T09:57:40;46.28;;;24.83;;
36501;SDS011;25393;46.108;3.390;2023-05-23T10:00:09;53.70;;;25.38;;
36501;SDS011;25393;46.108;3.390;2023-05-23T10:08:13;50.38;;;24.02;;
36501;SDS011;25393;46.108;3.390;2023-05-23T10:13:40;39.25;;;23.77;;
36501;SDS011;25393;46.108;3.390;2023-05-23T10:16:12;45.10;;;24.02;;
36501;SDS011;25393;46.108;3.390;2023-05-23T10:18:44;43.58;;;24.80;;
36501;SDS011;25393;46.108;3.390;2023-05-23T10:21:18;44.53;;;23.50;;
36501;SDS011;25393;46.108;3.390;2023-05-23T10:23:49;49.42;;;25.50;;
36501;SDS011;25393;46.108;3.390;2023-05-23T10:26:17;42.03;;;23.73;;
36501;SDS011;25393;46.108;3.390;2023-05-23T10:28:43;51.15;;;26.00;;
36501;SDS011;25393;46.108;3.390;2023-05-23T10:31:11;46.83;;;25.42;;
36501;SDS011;25393;46.108;3.390;2023-05-23T10:33:40;50.75;;;24.90;;
36501;SDS011;25393;46.108;3.390;2023-05-23T10:36:18;44.63;;;23.95;;
36501;SDS011;25393;46.108;3.390;2023-05-23T10:39:01;49.33;;;23.52;;
36501;SDS011;25393;46.108;3.390;2023-05-23T10:41:40;52.60;;;25.15;;
36501;SDS011;25393;46.108;3.390;2023-05-23T10:46:48;58.45;;;24.92;;
36501;SDS011;25393;46.108;3.390;2023-05-23T10:49:41;46.75;;;23.75;;
36501;SDS011;25393;46.108;3.390;2023-05-23T10:52:11;44.22;;;22.90;;
36501;SDS011;25393;46.108;3.390;2023-05-23T10:54:46;46.88;;;23.98;;
36501;SDS011;25393;46.108;3.390;2023-05-23T10:57:17;49.90;;;22.45;;
36501;SDS011;25393;46.108;3.390;2023-05-23T10:59:46;48.03;;;23.98;;
36501;SDS011;25393;46.108;3.390;2023-05-23T11:02:24;45.60;;;23.25;;
36501;SDS011;25393;46.108;3.390;2023-05-23T11:07:41;43.70;;;23.90;;
36501;SDS011;25393;46.108;3.390;2023-05-23T11:10:11;44.38;;;22.98;;
36501;SDS011;25393;46.108;3.390;2023-05-23T11:12:42;39.10;;;22.52;;
36501;SDS011;25393;46.108;3.390;2023-05-23T11:17:49;45.65;;;23.08;;
36501;SDS011;25393;46.108;3.390;2023-05-23T11:20:18;52.47;;;23.27;;
36501;SDS011;25393;46.108;3.390;2023-05-23T11:22:52;47.33;;;22.55;;
36501;SDS011;25393;46.108;3.390;2023-05-23T11:25:21;45.55;;;22.42;;
36501;SDS011;25393;46.108;3.390;2023-05-23T11:28:06;49.22;;;24.13;;
36501;SDS011;25393;46.108;3.390;2023-05-23T11:30:33;53.63;;;25.63;;
36501;SDS011;25393;46.108;3.390;2023-05-23T11:33:11;49.85;;;22.85;;
36501;SDS011;25393;46.108;3.390;2023-05-23T11:35:43;52.50;;;22.85;;
36501;SDS011;25393;46.108;3.390;2023-05-23T11:38:14;52.50;;;24.67;;
36501;SDS011;25393;46.108;3.390;2023-05-23T11:40:47;45.67;;;24.52;;
36501;SDS011;25393;46.108;3.390;2023-05-23T11:43:16;45.63;;;23.20;;
36501;SDS011;25393;46.108;3.390;2023-05-23T11:45:43;46.83;;;24.40;;
36501;SDS011;25393;46.108;3.390;2023-05-23T11:48:13;48.25;;;23.48;;
36501;SDS011;25393;46.108;3.390;2023-05-23T11:53:12;50.90;;;25.30;;
36501;SDS011;25393;46.108;3.390;2023-05-23T11:55:49;47.75;;;23.05;;
36501;SDS011;25393;46.108;3.390;2023-05-23T11:58:21;50.65;;;25.73;;
36501;SDS011;25393;46.108;3.390;2023-05-23T12:00:57;45.03;;;23.02;;
36501;SDS011;25393;46.108;3.390;2023-05-23T12:03:32;49.00;;;24.80;;
36501;SDS011;25393;46.108;3.390;2023-05-23T12:06:03;51.38;;;25.63;;
36501;SDS011;25393;46.108;3.390;2023-05-23T12:08:32;44.92;;;24.83;;
36501;SDS011;25393;46.108;3.390;2023-05-23T12:11:02;50.30;;;25.95;;
36501;SDS011;25393;46.108;3.390;2023-05-23T12:13:32;48.97;;;25.25;;
36501;SDS011;25393;46.108;3.390;2023-05-23T12:16:01;45.03;;;24.02;;
36501;SDS011;25393;46.108;3.390;2023-05-23T12:18:30;42.03;;;23.17;;
36501;SDS011;25393;46.108;3.390;2023-05-23T12:21:04;52.90;;;24.15;;
36501;SDS011;25393;46.108;3.390;2023-05-23T12:23:34;54.25;;;25.75;;
36501;SDS011;25393;46.108;3.390;2023-05-23T12:26:03;43.80;;;24.55;;
36501;SDS011;25393;46.108;3.390;2023-05-23T12:28:36;51.88;;;25.42;;
36501;SDS011;25393;46.108;3.390;2023-05-23T12:31:15;54.00;;;25.70;;
36501;SDS011;25393;46.108;3.390;2023-05-23T12:33:47;50.72;;;24.63;;
36501;SDS011;25393;46.108;3.390;2023-05-23T12:36:24;56.05;;;25.58;;
36501;SDS011;25393;46.108;3.390;2023-05-23T12:39:00;50.03;;;25.35;;
36501;SDS011;25393;46.108;3.390;2023-05-23T12:41:28;50.10;;;24.40;;
36501;SDS011;25393;46.108;3.390;2023-05-23T12:44:02;53.05;;;25.73;;
36501;SDS011;25393;46.108;3.390;2023-05-23T12:46:30;47.10;;;25.30;;
36501;SDS011;25393;46.108;3.390;2023-05-23T12:48:56;47.80;;;23.83;;
36501;SDS011;25393;46.108;3.390;2023-05-23T12:51:26;52.05;;;24.15;;
36501;SDS011;25393;46.108;3.390;2023-05-23T12:53:53;53.60;;;24.00;;
36501;SDS011;25393;46.108;3.390;2023-05-23T12:56:19;51.80;;;26.42;;
36501;SDS011;25393;46.108;3.390;2023-05-23T12:58:47;53.13;;;25.35;;
36501;SDS011;25393;46.108;3.390;2023-05-23T13:01:14;42.88;;;25.17;;
36501;SDS011;25393;46.108;3.390;2023-05-23T13:03:40;38.92;;;22.98;;
36501;SDS011;25393;46.108;3.390;2023-05-23T13:06:07;44.28;;;23.98;;
36501;SDS011;25393;46.108;3.390;2023-05-23T13:08:34;39.72;;;22.30;;
36501;SDS011;25393;46.108;3.390;2023-05-23T13:11:01;45.67;;;23.85;;
36501;SDS011;25393;46.108;3.390;2023-05-23T13:13:33;42.78;;;24.33;;
36501;SDS011;25393;46.108;3.390;2023-05-23T13:16:00;43.80;;;24.83;;
36501;SDS011;25393;46.108;3.390;2023-05-23T13:18:26;47.50;;;24.83;;
36501;SDS011;25393;46.108;3.390;2023-05-23T13:20:56;46.88;;;25.35;;
36501;SDS011;25393;46.108;3.390;2023-05-23T13:23:23;44.40;;;23.65;;
36501;SDS011;25393;46.108;3.390;2023-05-23T13:25:51;44.10;;;23.17;;
36501;SDS011;25393;46.108;3.390;2023-05-23T13:28:18;57.67;;;25.42;;
36501;SDS011;25393;46.108;3.390;2023-05-23T13:30:44;47.60;;;22.90;;
36501;SDS011;25393;46.108;3.390;2023-05-23T13:33:12;42.65;;;23.02;;
36501;SDS011;25393;46.108;3.390;2023-05-23T13:35:39;53.30;;;24.55;;
36501;SDS011;25393;46.108;3.390;2023-05-23T13:38:06;45.00;;;22.38;;
36501;SDS011;25393;46.108;3.390;2023-05-23T13:40:33;46.63;;;23.60;;
36501;SDS011;25393;46.108;3.390;2023-05-23T13:43:00;41.90;;;23.45;;
36501;SDS011;25393;46.108;3.390;2023-05-23T13:45:26;46.80;;;22.73;;
36501;SDS011;25393;46.108;3.390;2023-05-23T13:47:54;42.15;;;23.02;;
36501;SDS011;25393;46.108;3.390;2023-05-23T13:50:21;40.97;;;24.08;;
36501;SDS011;25393;46.108;3.390;2023-05-23T13:52:48;44.60;;;23.92;;
36501;SDS011;25393;46.108;3.390;2023-05-23T13:55:15;48.90;;;25.02;;
36501;SDS011;25393;46.108;3.390;2023-05-23T13:57:42;44.38;;;22.92;;
36501;SDS011;25393;46.108;3.390;2023-05-23T14:00:09;41.17;;;22.70;;
36501;SDS011;25393;46.108;3.390;2023-05-23T14:02:36;49.95;;;23.58;;
36501;SDS011;25393;46.108;3.390;2023-05-23T14:05:03;40.58;;;22.35;;
36501;SDS011;25393;46.108;3.390;2023-05-23T14:07:32;43.92;;;23.13;;
36501;SDS011;25393;46.108;3.390;2023-05-23T14:09:59;45.60;;;23.35;;
36501;SDS011;25393;46.108;3.390;2023-05-23T14:12:30;47.45;;;23.77;;
36501;SDS011;25393;46.108;3.390;2023-05-23T14:14:56;42.88;;;21.85;;
36501;SDS011;25393;46.108;3.390;2023-05-23T14:17:23;40.83;;;22.08;;
36501;SDS011;25393;46.108;3.390;2023-05-23T14:19:50;39.13;;;21.25;;
36501;SDS011;25393;46.108;3.390;2023-05-23T14:22:17;42.10;;;22.13;;
36501;SDS011;25393;46.108;3.390;2023-05-23T14:24:43;36.92;;;19.38;;
36501;SDS011;25393;46.108;3.390;2023-05-23T14:27:10;39.88;;;21.80;;
36501;SDS011;25393;46.108;3.390;2023-05-23T14:29:37;36.97;;;22.45;;
36501;SDS011;25393;46.108;3.390;2023-05-23T14:32:04;36.28;;;22.50;;
36501;SDS011;25393;46.108;3.390;2023-05-23T14:34:31;34.67;;;20.33;;
36501;SDS011;25393;46.108;3.390;2023-05-23T14:36:59;39.63;;;21.75;;
36501;SDS011;25393;46.108;3.390;2023-05-23T14:39:27;38.10;;;22.48;;
36501;SDS011;25393;46.108;3.390;2023-05-23T14:41:55;33.00;;;19.65;;
36501;SDS011;25393;46.108;3.390;2023-05-23T14:44:21;34.75;;;20.70;;
36501;SDS011;25393;46.108;3.390;2023-05-23T14:46:48;34.53;;;20.30;;
36501;SDS011;25393;46.108;3.390;2023-05-23T14:49:18;35.58;;;19.98;;
36501;SDS011;25393;46.108;3.390;2023-05-23T14:51:45;35.65;;;19.85;;
36501;SDS011;25393;46.108;3.390;2023-05-23T14:54:17;33.92;;;18.50;;
36501;SDS011;25393;46.108;3.390;2023-05-23T14:56:44;33.40;;;18.27;;